Time;durP1;ratioP1;P1;durP2;ratioP2;P2;SDS_P1;SDS_P2;PMS_P1;PMS_P2;Temp;Humidity;BMP_temperature;BMP_pressure;BME280_temperature;BME280_humidity;BME280_pressure;Samples;Min_cycle;Max_cycle;Signal;HPM_P1;HPM_P2
2021/06/16 00:01:34;;;;;;;142.25;135.45;;;;;;;17.55;63.67;98710.59;5024861;28;20060;-66
2021/06/16 00:04:01;;;;;;;26.15;11.23;;;;;;;17.51;63.59;98715.09;5019883;28;20038;-65
2021/06/16 00:06:27;;;;;;;21.10;10.90;;;;;;;17.45;63.48;98722.28;5022306;28;20033;-66
2021/06/16 00:08:53;;;;;;;43.78;41.17;;;;;;;17.42;64.19;98717.25;5021805;28;20321;-66
2021/06/16 00:11:19;;;;;;;97.00;91.80;;;;;;;17.40;64.57;98726.84;5023151;28;20064;-66
2021/06/16 00:13:44;;;;;;;115.60;109.28;;;;;;;17.36;63.01;98724.38;5025829;28;20435;-66
2021/06/16 00:16:10;;;;;;;175.07;166.55;;;;;;;17.34;63.35;98726.22;5025667;28;20037;-67
2021/06/16 00:18:35;;;;;;;154.43;145.85;;;;;;;17.28;63.21;98723.88;5033068;28;20029;-67
2021/06/16 00:21:01;;;;;;;128.07;121.85;;;;;;;17.22;63.81;98719.00;5028644;28;20045;-67
2021/06/16 00:23:26;;;;;;;106.65;100.55;;;;;;;17.25;63.25;98726.63;5024134;28;20022;-66
2021/06/16 00:25:51;;;;;;;46.45;43.35;;;;;;;17.18;63.76;98726.97;5041164;28;20029;-66
2021/06/16 00:28:17;;;;;;;12.40;7.05;;;;;;;17.08;64.56;98733.44;5029113;28;20049;-66
2021/06/16 00:30:42;;;;;;;12.73;7.10;;;;;;;16.98;64.61;98724.38;5033313;28;20034;-67
2021/06/16 00:33:08;;;;;;;20.38;8.90;;;;;;;16.88;66.11;98731.72;5031773;28;20062;-67
2021/06/16 00:35:33;;;;;;;14.80;8.60;;;;;;;16.84;66.61;98736.19;5025446;28;20021;-67
2021/06/16 00:37:59;;;;;;;13.00;6.82;;;;;;;16.79;65.78;98738.13;5025680;28;20044;-66
2021/06/16 00:40:27;;;;;;;11.80;6.68;;;;;;;16.82;65.54;98735.41;5025140;28;20041;-66
2021/06/16 00:42:53;;;;;;;23.85;19.83;;;;;;;16.79;65.64;98737.28;5022422;28;20080;-67
2021/06/16 00:45:20;;;;;;;16.98;8.65;;;;;;;16.77;65.88;98733.91;5027469;28;20080;-67
2021/06/16 00:47:47;;;;;;;80.88;76.40;;;;;;;16.77;65.87;98739.09;5042911;28;20390;-67
2021/06/16 00:50:13;;;;;;;16.42;13.32;;;;;;;16.74;66.22;98736.63;5027907;28;20038;-67
2021/06/16 00:52:39;;;;;;;17.17;8.63;;;;;;;16.77;66.13;98736.50;5023770;28;20029;-67
2021/06/16 00:55:06;;;;;;;18.30;9.65;;;;;;;16.73;66.23;98722.84;5024462;28;20034;-67
2021/06/16 00:57:32;;;;;;;17.02;8.63;;;;;;;16.77;66.43;98732.16;5025215;28;20078;-66
2021/06/16 01:00:07;;;;;;;16.70;8.45;;;;;;;16.81;66.21;98730.28;5023833;28;20049;-65
2021/06/16 01:02:40;;;;;;;128.85;122.78;;;;;;;16.79;65.54;98722.59;5022991;28;20040;-67
2021/06/16 01:05:07;;;;;;;19.35;16.38;;;;;;;16.88;65.86;98726.53;5025892;28;20029;-66
2021/06/16 01:07:40;;;;;;;16.08;7.97;;;;;;;16.91;65.61;98723.81;5027640;28;20047;-66
2021/06/16 01:10:07;;;;;;;17.35;10.55;;;;;;;16.87;65.83;98720.53;5026001;28;20049;-66
2021/06/16 01:12:32;;;;;;;18.90;12.88;;;;;;;16.88;65.73;98721.38;5024229;28;20033;-66
2021/06/16 01:15:09;;;;;;;55.63;52.15;;;;;;;16.94;65.42;98721.09;5033331;28;20120;-66
2021/06/16 01:17:40;;;;;;;28.98;26.55;;;;;;;16.98;64.67;98722.63;5027646;28;20033;-66
2021/06/16 01:20:24;;;;;;;15.95;8.20;;;;;;;17.07;64.22;98726.56;5026490;28;20033;-66
2021/06/16 01:23:01;;;;;;;25.10;12.68;;;;;;;17.20;63.89;98720.78;5023254;28;20033;-66
2021/06/16 01:25:41;;;;;;;11.88;7.80;;;;;;;17.13;63.78;98715.97;5025820;28;20282;-65
2021/06/16 01:28:08;;;;;;;14.95;8.65;;;;;;;17.04;64.46;98714.59;5024394;28;20108;-65
2021/06/16 01:30:35;;;;;;;18.58;8.68;;;;;;;17.02;64.33;98708.63;5024405;28;20065;-66
2021/06/16 01:33:02;;;;;;;15.60;7.28;;;;;;;16.99;64.74;98711.38;5026400;28;20133;-66
2021/06/16 01:35:30;;;;;;;12.15;7.22;;;;;;;17.05;64.78;98715.44;5025763;28;20748;-67
2021/06/16 01:37:58;;;;;;;11.55;6.85;;;;;;;17.10;64.56;98710.91;5027635;28;20026;-67
2021/06/16 01:40:25;;;;;;;15.30;7.57;;;;;;;17.11;64.36;98717.75;5025406;28;20117;-66
2021/06/16 01:42:53;;;;;;;15.73;8.27;;;;;;;17.16;64.43;98710.63;5026289;28;20021;-67
2021/06/16 01:45:20;;;;;;;12.68;6.68;;;;;;;17.23;63.86;98715.47;5025746;28;20033;-67
2021/06/16 01:47:47;;;;;;;15.32;7.28;;;;;;;17.36;63.00;98708.81;5023944;28;20047;-67
2021/06/16 01:50:16;;;;;;;16.85;7.88;;;;;;;17.43;62.19;98708.56;5021501;28;20276;-67
2021/06/16 01:52:43;;;;;;;20.23;8.90;;;;;;;17.43;62.53;98705.97;5024573;28;20075;-67
2021/06/16 01:55:10;;;;;;;14.98;7.70;;;;;;;17.40;62.56;98712.13;5026344;28;20053;-66
2021/06/16 01:57:37;;;;;;;25.65;10.05;;;;;;;17.34;62.42;98704.63;5025755;28;20053;-67
2021/06/16 02:00:06;;;;;;;17.88;8.63;;;;;;;17.31;63.25;98709.97;5020724;28;20272;-67
2021/06/16 02:02:31;;;;;;;12.05;6.82;;;;;;;17.23;63.40;98712.88;5023365;28;20453;-67
2021/06/16 02:04:58;;;;;;;16.83;7.90;;;;;;;17.14;63.01;98702.09;5024454;28;20097;-65
2021/06/16 02:07:30;;;;;;;26.77;10.93;;;;;;;17.21;63.33;98716.47;5024944;28;20075;-67
2021/06/16 02:09:57;;;;;;;13.70;7.63;;;;;;;17.18;63.51;98720.03;5023049;28;20132;-67
2021/06/16 02:12:24;;;;;;;15.80;7.38;;;;;;;17.17;63.63;98726.13;5023737;28;20022;-67
2021/06/16 02:15:00;;;;;;;11.60;6.53;;;;;;;17.21;63.25;98719.03;5036220;28;20425;-65
2021/06/16 02:17:29;;;;;;;13.25;7.15;;;;;;;17.20;63.61;98732.91;5022221;28;20037;-67
2021/06/16 02:19:56;;;;;;;13.55;8.13;;;;;;;17.13;63.96;98728.91;5022537;28;20033;-67
2021/06/16 02:22:26;;;;;;;22.63;9.32;;;;;;;17.18;64.01;98724.38;5025144;28;20071;-67
2021/06/16 02:24:52;;;;;;;20.60;9.65;;;;;;;17.17;63.65;98715.75;5025401;28;20032;-67
2021/06/16 02:27:17;;;;;;;13.85;7.88;;;;;;;17.19;63.67;98710.47;5022983;28;20035;-67
2021/06/16 02:29:43;;;;;;;14.55;8.35;;;;;;;17.22;63.10;98711.22;5025032;28;20712;-66
2021/06/16 02:32:09;;;;;;;12.93;7.13;;;;;;;17.17;63.48;98707.97;5022357;28;20097;-67
2021/06/16 02:34:34;;;;;;;20.67;8.90;;;;;;;17.15;63.42;98714.13;5020896;28;20295;-67
2021/06/16 02:37:04;;;;;;;12.73;7.38;;;;;;;17.20;63.29;98713.03;5022760;28;20040;-66
2021/06/16 02:39:37;;;;;;;15.13;7.10;;;;;;;17.26;62.71;98710.16;5027426;28;20108;-67
2021/06/16 02:42:08;;;;;;;10.68;6.38;;;;;;;17.23;62.54;98715.47;5025964;28;20380;-67
2021/06/16 02:44:34;;;;;;;13.05;7.35;;;;;;;17.06;64.13;98714.56;5021633;28;20036;-66
2021/06/16 02:47:02;;;;;;;18.73;7.63;;;;;;;16.92;64.67;98715.16;5022458;28;20037;-66
2021/06/16 02:49:34;;;;;;;12.63;7.22;;;;;;;16.96;64.41;98718.44;5020931;28;20435;-66
2021/06/16 02:52:00;;;;;;;13.23;6.80;;;;;;;16.99;64.58;98713.13;5025061;28;20383;-66
2021/06/16 02:54:28;;;;;;;12.80;7.05;;;;;;;17.04;63.82;98714.59;5024154;28;20308;-67
2021/06/16 02:56:54;;;;;;;13.68;7.55;;;;;;;17.10;63.42;98716.91;5023239;28;20289;-67
2021/06/16 02:59:21;;;;;;;11.18;6.38;;;;;;;17.12;63.51;98703.91;5023518;28;20055;-67
2021/06/16 03:01:48;;;;;;;14.10;7.28;;;;;;;17.15;63.11;98716.72;5023527;28;20112;-67
2021/06/16 03:04:15;;;;;;;14.57;7.15;;;;;;;17.21;62.80;98717.31;5022693;28;20034;-67
2021/06/16 03:06:44;;;;;;;21.27;8.40;;;;;;;17.29;62.26;98716.94;5022746;28;20060;-67
2021/06/16 03:09:10;;;;;;;11.88;6.05;;;;;;;17.35;61.78;98714.09;5024985;28;20053;-67
2021/06/16 03:11:37;;;;;;;14.27;7.15;;;;;;;17.29;62.05;98716.94;5024088;28;20386;-67
2021/06/16 03:14:04;;;;;;;12.25;6.88;;;;;;;17.31;62.25;98726.31;5022412;28;20029;-66
2021/06/16 03:16:31;;;;;;;15.07;7.03;;;;;;;17.36;62.17;98724.38;5024979;28;20084;-67
2021/06/16 03:18:57;;;;;;;13.52;6.80;;;;;;;17.38;62.29;98726.06;5024504;28;20060;-67
2021/06/16 03:21:23;;;;;;;12.10;6.78;;;;;;;17.38;62.29;98726.91;5025475;28;20036;-67
2021/06/16 03:23:49;;;;;;;13.20;6.75;;;;;;;17.43;62.55;98732.72;5021300;28;20076;-67
2021/06/16 03:26:17;;;;;;;12.90;6.25;;;;;;;17.49;62.98;98735.03;5023715;28;20101;-67
2021/06/16 03:28:43;;;;;;;16.20;8.23;;;;;;;17.53;62.91;98736.56;5025679;28;20037;-66
2021/06/16 03:31:12;;;;;;;10.50;5.97;;;;;;;17.62;62.17;98732.75;5023364;28;20029;-67
2021/06/16 03:33:38;;;;;;;16.58;7.82;;;;;;;17.65;61.75;98732.63;5021605;28;20029;-67
2021/06/16 03:36:05;;;;;;;10.23;6.10;;;;;;;17.77;61.02;98734.66;5022715;28;20100;-67
2021/06/16 03:38:32;;;;;;;13.10;6.65;;;;;;;17.84;61.81;98738.66;5023446;28;20080;-67
2021/06/16 03:40:59;;;;;;;11.40;6.55;;;;;;;17.94;61.78;98737.31;5029944;28;20033;-67
2021/06/16 03:43:25;;;;;;;14.90;8.10;;;;;;;18.03;60.58;98725.66;5022478;28;20038;-67
2021/06/16 03:45:51;;;;;;;;;;;;;;;18.25;60.33;98724.53;5040139;28;20122;-67
2021/06/16 03:48:18;;;;;;;;;;;;;;;18.45;59.72;98726.19;5026121;28;20033;-67
2021/06/16 03:50:44;;;;;;;;;;;;;;;18.67;58.54;98731.19;5028695;28;20180;-67
2021/06/16 03:53:10;;;;;;;;;;;;;;;18.89;57.83;98729.16;5023556;28;19909;-67
2021/06/16 03:55:37;;;;;;;;;;;;;;;19.09;57.08;98730.75;5041292;28;19992;-67
2021/06/16 03:58:02;;;;;;;;;;;;;;;19.24;56.72;98734.31;5029748;28;19909;-68
2021/06/16 04:00:28;;;;;;;;;;;;;;;19.37;56.75;98733.59;5032771;28;20490;-68
2021/06/16 04:02:53;;;;;;;;;;;;;;;19.55;56.03;98729.19;5024261;28;19960;-68
2021/06/16 04:05:18;;;;;;;;;;;;;;;19.74;56.55;98731.63;5024930;28;19914;-65
2021/06/16 04:07:50;;;;;;;;;;;;;;;19.87;56.52;98727.44;5026877;28;19987;-68
2021/06/16 04:10:17;;;;;;;;;;;;;;;20.02;55.48;98735.25;5026231;28;20285;-68
2021/06/16 04:12:44;;;;;;;;;;;;;;;20.24;55.15;98734.06;5023812;28;19909;-68
2021/06/16 04:15:10;;;;;;;;;;;;;;;20.44;53.06;98736.41;5027601;28;20012;-69
2021/06/16 04:17:35;;;;;;;;;;;;;;;20.63;52.79;98728.34;5032943;28;20024;-68
2021/06/16 04:20:00;;;;;;;;;;;;;;;20.82;52.36;98727.19;5026423;28;19920;-68
2021/06/16 04:22:26;;;;;;;;;;;;;;;21.01;51.61;98726.06;5026631;28;19921;-68
2021/06/16 04:24:51;;;;;;;;;;;;;;;21.13;51.51;98726.22;5043162;28;20415;-68
2021/06/16 04:27:16;;;;;;;;;;;;;;;21.18;51.54;98728.53;5025206;28;19912;-68
2021/06/16 04:29:42;;;;;;;;;;;;;;;21.34;51.43;98724.91;5027073;28;19965;-67
2021/06/16 04:32:08;;;;;;;;;;;;;;;21.46;50.99;98728.56;5028183;28;19925;-68
2021/06/16 04:34:34;;;;;;;;;;;;;;;21.74;50.74;98730.28;5026237;28;20008;-68
2021/06/16 04:36:59;;;;;;;;;;;;;;;21.58;50.98;98735.63;5024414;28;20011;-67
2021/06/16 04:39:24;;;;;;;;;;;;;;;21.61;50.87;98727.59;5029610;28;19917;-68
2021/06/16 04:41:50;;;;;;;;;;;;;;;21.53;51.38;98739.44;5027296;28;20177;-67
2021/06/16 04:44:15;;;;;;;;;;;;;;;21.63;50.71;98737.97;5025862;28;19960;-68
2021/06/16 04:46:40;;;;;;;;;;;;;;;21.57;50.53;98739.16;5025110;28;20277;-68
2021/06/16 04:49:06;;;;;;;;;;;;;;;21.77;50.42;98743.97;5025174;28;19916;-68
2021/06/16 04:51:31;;;;;;;;;;;;;;;21.83;50.23;98745.38;5025937;28;20352;-68
2021/06/16 04:53:56;;;;;;;;;;;;;;;21.63;50.52;98744.03;5029234;28;20261;-68
2021/06/16 04:56:22;;;;;;;;;;;;;;;21.85;49.83;98740.91;5027155;28;19910;-68
2021/06/16 04:58:47;;;;;;;;;;;;;;;22.07;49.18;98740.38;5025170;28;20258;-68
2021/06/16 05:01:12;;;;;;;;;;;;;;;22.36;48.84;98739.38;5024942;28;19926;-68
2021/06/16 05:03:38;;;;;;;;;;;;;;;22.47;48.71;98736.06;5026478;28;20179;-68
2021/06/16 05:06:04;;;;;;;;;;;;;;;22.76;48.03;98743.66;5030280;28;19987;-68
2021/06/16 05:08:29;;;;;;;;;;;;;;;22.72;48.36;98743.97;5026924;28;19917;-68
2021/06/16 05:10:55;;;;;;;;;;;;;;;22.91;47.84;98739.22;5023276;28;19917;-68
2021/06/16 05:13:24;;;;;;;;;;;;;;;22.49;48.68;98742.03;5025651;28;19913;-68
2021/06/16 05:15:50;;;;;;;;;;;;;;;22.12;50.06;98747.00;5026369;28;20004;-68
2021/06/16 05:18:16;;;;;;;9.40;6.30;;;;;;;22.25;49.56;98744.44;5031879;28;20266;-68
2021/06/16 05:20:41;;;;;;;7.38;5.88;;;;;;;22.29;49.39;98751.16;5026724;28;20030;-69
2021/06/16 05:23:07;;;;;;;6.78;6.07;;;;;;;22.40;49.26;98753.91;5028438;28;20033;-69
2021/06/16 05:25:32;;;;;;;11.77;7.35;;;;;;;22.23;49.52;98756.78;5027062;28;20092;-70
2021/06/16 05:27:58;;;;;;;10.63;6.38;;;;;;;22.18;49.60;98761.47;5025502;28;20036;-68
2021/06/16 05:30:24;;;;;;;10.50;6.20;;;;;;;22.19;49.75;98768.38;5023037;28;20044;-68
2021/06/16 05:32:49;;;;;;;6.88;5.80;;;;;;;22.19;50.34;98760.53;5025282;28;20530;-67
2021/06/16 05:35:15;;;;;;;10.68;6.22;;;;;;;22.18;50.55;98769.28;5026656;28;20152;-68
2021/06/16 05:37:44;;;;;;;8.27;5.82;;;;;;;22.61;49.16;98765.59;5033901;28;20025;-68
2021/06/16 05:40:10;;;;;;;10.82;6.20;;;;;;;22.60;48.49;98770.91;5026944;28;20052;-68
2021/06/16 05:42:36;;;;;;;9.63;7.63;;;;;;;22.52;49.12;98775.78;5024961;28;20437;-68
2021/06/16 05:45:01;;;;;;;10.48;5.78;;;;;;;22.77;49.08;98778.50;5024965;28;20032;-68
2021/06/16 05:47:27;;;;;;;10.60;6.63;;;;;;;23.00;48.07;98771.75;5026905;28;20041;-68
2021/06/16 05:49:52;;;;;;;6.28;5.47;;;;;;;23.02;48.49;98781.16;5024574;28;20108;-68
2021/06/16 05:52:17;;;;;;;20.35;8.23;;;;;;;23.08;48.06;98782.53;5024486;28;20026;-68
2021/06/16 05:54:43;;;;;;;18.73;6.63;;;;;;;22.97;47.66;98779.78;5029411;28;20033;-67
2021/06/16 05:57:08;;;;;;;7.05;6.32;;;;;;;22.80;48.50;98780.91;5026843;28;20037;-67
2021/06/16 05:59:34;;;;;;;7.07;6.38;;;;;;;22.60;48.95;98784.81;5024513;28;20120;-67
2021/06/16 06:02:01;;;;;;;9.68;7.10;;;;;;;22.73;48.67;98782.25;5024795;28;20381;-67
2021/06/16 06:04:26;;;;;;;7.22;5.80;;;;;;;22.92;48.29;98785.31;5029298;28;20026;-68
2021/06/16 06:06:52;;;;;;;12.18;5.65;;;;;;;23.13;48.23;98777.81;5033922;28;20279;-66
2021/06/16 06:09:17;;;;;;;14.85;6.75;;;;;;;23.35;47.70;98785.03;5023273;28;20046;-67
2021/06/16 06:11:43;;;;;;;8.25;5.50;;;;;;;23.33;45.56;98787.78;5026920;28;20052;-67
2021/06/16 06:14:08;;;;;;;6.57;5.35;;;;;;;23.47;46.60;98781.59;5032375;28;20032;-68
2021/06/16 06:16:34;;;;;;;9.60;5.20;;;;;;;23.60;45.97;98780.66;5024271;28;20025;-68
2021/06/16 06:18:59;;;;;;;8.27;5.63;;;;;;;23.57;45.64;98782.66;5023217;28;20323;-67
2021/06/16 06:21:30;;;;;;;14.05;5.40;;;;;;;23.65;45.04;98799.50;5025992;28;20083;-67
2021/06/16 06:23:56;;;;;;;6.97;4.72;;;;;;;23.64;45.49;98795.19;5021942;28;20112;-68
2021/06/16 06:26:21;;;;;;;10.88;5.40;;;;;;;23.63;45.92;98793.56;5025274;28;20159;-68
2021/06/16 06:28:47;;;;;;;20.33;6.20;;;;;;;23.67;45.85;98794.16;5022918;28;20029;-68
2021/06/16 06:31:12;;;;;;;6.78;5.10;;;;;;;23.72;45.10;98793.84;5025634;28;20025;-67
2021/06/16 06:33:38;;;;;;;6.30;5.13;;;;;;;23.89;45.33;98791.69;5025297;28;20014;-67
2021/06/16 06:36:03;;;;;;;10.52;4.95;;;;;;;23.93;46.11;98797.56;5022068;28;20111;-68
2021/06/16 06:38:29;;;;;;;10.73;5.55;;;;;;;24.18;46.25;98792.28;5022451;28;20053;-67
2021/06/16 06:40:54;;;;;;;10.63;5.15;;;;;;;24.29;44.36;98789.72;5024416;28;20057;-68
2021/06/16 06:43:20;;;;;;;8.82;5.65;;;;;;;24.35;43.89;98797.16;5025357;28;20029;-67
2021/06/16 06:45:45;;;;;;;7.13;5.07;;;;;;;24.28;43.51;98788.03;5021791;28;20036;-68
2021/06/16 06:48:11;;;;;;;14.40;5.05;;;;;;;24.18;41.20;98792.28;5025263;28;20500;-68
2021/06/16 06:50:36;;;;;;;6.55;4.82;;;;;;;24.24;41.00;98786.59;5025815;28;20018;-67
2021/06/16 06:53:02;;;;;;;6.20;4.50;;;;;;;24.17;41.01;98789.78;5022064;28;20029;-67
2021/06/16 06:55:28;;;;;;;5.00;4.43;;;;;;;24.40;40.14;98788.97;5024534;28;20022;-67
2021/06/16 06:57:54;;;;;;;5.55;4.25;;;;;;;24.43;40.93;98786.97;5024423;28;20041;-67
2021/06/16 07:00:20;;;;;;;6.88;4.93;;;;;;;24.48;39.46;98779.59;5024736;28;20022;-67
2021/06/16 07:02:47;;;;;;;4.90;4.30;;;;;;;24.68;39.00;98778.13;5023647;28;20330;-67
2021/06/16 07:05:12;;;;;;;10.63;5.30;;;;;;;24.58;39.01;98771.88;5021154;28;20256;-67
2021/06/16 07:07:38;;;;;;;6.38;5.45;;;;;;;24.72;38.17;98773.47;5026535;28;20040;-67
2021/06/16 07:10:04;;;;;;;6.50;4.13;;;;;;;24.70;37.99;98770.13;5025143;28;20069;-67
2021/06/16 07:12:29;;;;;;;5.07;4.35;;;;;;;24.69;37.96;98766.69;5020886;28;20112;-67
2021/06/16 07:14:55;;;;;;;8.60;5.35;;;;;;;24.24;39.79;98765.63;5020150;28;20026;-67
2021/06/16 07:17:22;;;;;;;6.25;4.35;;;;;;;24.52;38.77;98759.22;5024260;28;20113;-67
2021/06/16 07:19:48;;;;;;;6.13;4.00;;;;;;;24.66;39.25;98760.81;5022688;28;20053;-67
2021/06/16 07:22:14;;;;;;;7.35;5.75;;;;;;;24.73;38.90;98762.03;5023202;28;20034;-67
2021/06/16 07:24:39;;;;;;;8.75;4.43;;;;;;;24.58;39.33;98750.91;5030004;28;20271;-67
2021/06/16 07:27:05;;;;;;;9.38;4.78;;;;;;;24.66;38.57;98766.06;5028492;28;20033;-67
2021/06/16 07:29:30;;;;;;;4.97;4.35;;;;;;;24.69;37.48;98764.06;5028761;28;20037;-66
2021/06/16 07:31:56;;;;;;;6.18;4.93;;;;;;;24.62;38.21;98761.97;5026018;28;20033;-66
2021/06/16 07:34:21;;;;;;;5.10;4.38;;;;;;;24.87;37.57;98764.47;5007923;28;20045;-62
2021/06/16 07:36:47;;;;;;;7.75;4.43;;;;;;;24.93;36.72;98769.28;5014350;28;20048;-62
2021/06/16 07:39:12;;;;;;;5.18;4.63;;;;;;;24.74;37.12;98761.91;5025255;28;20025;-62
2021/06/16 07:41:37;;;;;;;8.00;5.63;;;;;;;24.83;36.66;98763.84;5024808;28;20041;-68
2021/06/16 07:44:03;;;;;;;9.82;4.68;;;;;;;24.86;35.99;98765.47;5026118;28;20026;-68
2021/06/16 07:46:28;;;;;;;9.13;4.82;;;;;;;24.89;36.28;98768.69;5027197;28;20065;-66
2021/06/16 07:48:54;;;;;;;7.50;4.38;;;;;;;25.07;35.92;98769.09;5028499;28;20425;-66
2021/06/16 07:51:20;;;;;;;5.90;4.68;;;;;;;25.14;35.07;98770.28;5024288;28;20025;-66
2021/06/16 07:53:45;;;;;;;12.25;4.93;;;;;;;25.29;35.02;98769.09;5017633;28;20045;-63
2021/06/16 07:56:11;;;;;;;11.45;5.20;;;;;;;25.36;35.52;98767.69;5017094;28;20040;-63
2021/06/16 07:58:37;;;;;;;8.65;4.30;;;;;;;25.35;36.13;98768.63;5028972;28;20051;-67
2021/06/16 08:01:02;;;;;;;11.38;5.18;;;;;;;25.33;37.27;98767.09;5023112;28;20037;-66
2021/06/16 08:03:28;;;;;;;5.82;5.22;;;;;;;25.37;37.53;98769.38;5024310;28;20018;-63
2021/06/16 08:05:54;;;;;;;8.68;5.43;;;;;;;25.38;37.43;98771.00;5022544;28;20288;-62
2021/06/16 08:08:20;;;;;;;7.53;4.93;;;;;;;25.24;38.42;98768.63;5025980;28;20322;-63
2021/06/16 08:10:46;;;;;;;8.38;5.07;;;;;;;25.38;38.87;98765.75;5028313;28;20042;-64
2021/06/16 08:13:12;;;;;;;7.00;4.82;;;;;;;25.46;38.34;98776.50;5027293;28;20029;-65
2021/06/16 08:15:37;;;;;;;8.52;4.35;;;;;;;25.40;38.36;98770.91;5023455;28;20040;-65
2021/06/16 08:18:03;;;;;;;6.55;5.05;;;;;;;25.68;37.65;98775.72;5027566;28;20017;-65
2021/06/16 08:20:29;;;;;;;6.32;4.63;;;;;;;25.96;37.65;98779.63;5029274;28;20037;-65
2021/06/16 08:22:54;;;;;;;7.18;5.25;;;;;;;25.74;37.52;98782.28;5026076;28;20323;-65
2021/06/16 08:25:20;;;;;;;4.63;4.13;;;;;;;25.95;36.95;98775.34;5024430;28;20038;-65
2021/06/16 08:27:46;;;;;;;10.10;5.25;;;;;;;25.73;36.43;98770.94;5027267;28;20025;-65
2021/06/16 08:30:13;;;;;;;7.25;4.80;;;;;;;26.03;36.57;98777.34;5027150;28;20156;-65
2021/06/16 08:32:40;;;;;;;8.27;5.53;;;;;;;26.05;36.29;98770.19;5026123;28;20030;-65
2021/06/16 08:35:06;;;;;;;9.68;5.40;;;;;;;25.83;36.60;98773.69;5029429;28;20274;-65
2021/06/16 08:37:32;;;;;;;10.50;4.55;;;;;;;25.82;36.34;98772.84;5028000;28;20466;-65
2021/06/16 08:39:57;;;;;;;5.35;4.82;;;;;;;25.87;36.25;98775.09;5026564;28;20113;-65
2021/06/16 08:42:25;;;;;;;6.50;4.82;;;;;;;26.10;36.11;98779.34;5027091;28;20040;-65
2021/06/16 08:44:53;;;;;;;6.70;4.53;;;;;;;26.39;36.05;98781.47;5026629;28;20034;-65
2021/06/16 08:47:23;;;;;;;7.03;4.80;;;;;;;26.61;35.87;98778.75;5028497;28;20025;-66
2021/06/16 08:49:50;;;;;;;6.72;4.80;;;;;;;26.87;35.21;98781.88;5027939;28;20076;-65
2021/06/16 08:52:16;;;;;;;11.07;5.45;;;;;;;26.89;35.21;98777.34;5025562;28;20040;-64
2021/06/16 08:54:41;;;;;;;6.78;4.90;;;;;;;26.57;34.63;98777.34;5024647;28;20022;-66
2021/06/16 08:57:07;;;;;;;10.05;5.35;;;;;;;26.46;34.39;98775.59;5026267;28;20046;-62
2021/06/16 08:59:34;;;;;;;7.45;5.15;;;;;;;26.43;34.31;98781.13;5027082;28;20378;-65
2021/06/16 09:01:59;;;;;;;6.85;5.00;;;;;;;26.48;34.40;98775.47;5028779;28;20152;-63
2021/06/16 09:04:57;;;;;;;6.78;4.85;;;;;;;26.60;34.05;98777.94;5026600;28;20375;-64
2021/06/16 09:07:32;;;;;;;6.22;4.95;;;;;;;26.77;34.10;98774.75;5001055;28;20056;-63
2021/06/16 09:10:05;;;;;;;7.68;4.97;;;;;;;26.74;33.82;98782.03;5024292;28;20058;-66
2021/06/16 09:12:33;;;;;;;9.85;5.25;;;;;;;26.60;34.29;98783.19;5028411;28;20091;-66
2021/06/16 09:14:58;;;;;;;8.25;4.65;;;;;;;26.55;33.93;98785.38;5024545;28;20099;-65
2021/06/16 09:17:24;;;;;;;7.15;4.53;;;;;;;26.96;33.93;98784.59;5027379;28;20029;-65
2021/06/16 09:19:52;;;;;;;9.00;4.60;;;;;;;27.07;32.83;98781.94;5028611;28;20175;-66
2021/06/16 09:22:17;;;;;;;5.38;4.95;;;;;;;26.94;32.71;98789.16;5027472;28;20029;-65
2021/06/16 09:24:44;;;;;;;7.18;4.75;;;;;;;27.08;32.58;98788.00;5031546;28;20040;-65
2021/06/16 09:27:10;;;;;;;5.65;4.75;;;;;;;27.06;32.75;98788.13;5028614;28;20032;-64
2021/06/16 09:29:36;;;;;;;7.45;4.70;;;;;;;27.41;34.12;98785.16;5028793;28;20347;-64
2021/06/16 09:32:04;;;;;;;6.15;4.82;;;;;;;27.30;32.61;98784.38;5024240;28;20030;-63
2021/06/16 09:34:30;;;;;;;8.35;4.78;;;;;;;27.07;32.51;98787.19;5029676;28;20029;-63
2021/06/16 09:36:59;;;;;;;9.00;4.75;;;;;;;27.10;32.76;98789.56;5030538;28;20045;-63
2021/06/16 09:39:27;;;;;;;11.00;4.93;;;;;;;27.13;32.71;98784.03;5027590;28;20030;-63
2021/06/16 09:42:00;;;;;;;9.70;4.50;;;;;;;27.12;32.80;98786.78;5026598;28;20033;-63
2021/06/16 09:44:44;;;;;;;5.90;5.40;;;;;;;27.25;33.19;98776.88;5028187;28;20037;-63
2021/06/16 09:47:11;;;;;;;7.03;5.03;;;;;;;27.47;33.70;98781.16;5032149;28;20017;-64
2021/06/16 09:50:06;;;;;;;6.25;4.88;;;;;;;27.41;32.51;98781.69;5026000;28;20037;-64
2021/06/16 09:52:40;;;;;;;6.32;4.63;;;;;;;27.61;33.08;98788.75;5016794;28;20058;-63
2021/06/16 09:55:07;;;;;;;;;;;;;;;27.76;32.66;98778.66;5025044;28;20387;-63
2021/06/16 09:57:33;;;;;;;6.28;4.30;;;;;;;28.03;33.34;98776.25;5026295;28;19944;-65
2021/06/16 10:00:09;;;;;;;5.50;5.00;;;;;;;27.95;32.29;98776.94;5023461;28;20042;-64
2021/06/16 10:02:35;;;;;;;11.40;4.95;;;;;;;28.08;32.82;98772.25;5023699;28;20029;-65
2021/06/16 10:05:02;;;;;;;;;;;;;;;28.04;32.11;98773.50;5028070;28;19917;-64
2021/06/16 10:07:29;;;;;;;;;;;;;;;27.98;31.48;98773.19;5026851;28;20004;-65
2021/06/16 10:09:59;;;;;;;;;;;;;;;27.94;31.16;98762.09;5024494;28;19925;-65
2021/06/16 10:12:28;;;;;;;;;;;;;;;28.01;31.97;98772.91;5026516;28;19964;-64
2021/06/16 10:14:54;;;;;;;;;;;;;;;28.04;31.65;98778.78;5023498;28;20364;-64
2021/06/16 10:17:20;;;;;;;;;;;;;;;27.73;32.01;98784.22;5025498;28;19917;-64
2021/06/16 10:19:46;;;;;;;;;;;;;;;27.97;31.82;98775.00;5027126;28;19932;-64
2021/06/16 10:22:12;;;;;;;;;;;;;;;28.09;32.59;98773.94;5027762;28;20305;-64
2021/06/16 10:24:38;;;;;;;;;;;;;;;28.32;32.45;98771.91;5021133;28;19921;-62
2021/06/16 10:27:05;;;;;;;;;;;;;;;28.26;31.50;98772.47;5024078;28;20186;-63
2021/06/16 10:29:41;;;;;;;;;;;;;;;28.51;33.93;98766.66;5025249;28;19944;-62
2021/06/16 10:32:07;;;;;;;;;;;;;;;28.79;32.09;98772.91;5024237;28;20008;-62
2021/06/16 10:34:51;;;;;;;6.25;4.95;;;;;;;28.55;31.72;98775.13;5021179;28;19964;-61
2021/06/16 10:37:31;;;;;;;6.40;5.55;;;;;;;28.66;30.78;98779.41;5025777;28;20026;-63
2021/06/16 10:40:19;;;;;;;5.32;4.50;;;;;;;28.71;32.01;98767.50;5023854;28;20112;-64
2021/06/16 10:43:02;;;;;;;7.93;6.32;;;;;;;28.70;31.10;98773.75;5022783;28;20084;-63
2021/06/16 10:45:29;;;;;;;5.68;4.93;;;;;;;28.46;30.55;98768.88;5022565;28;20037;-63
2021/06/16 10:47:56;;;;;;;6.28;5.65;;;;;;;28.45;30.77;98776.91;5030211;28;20432;-63
2021/06/16 10:50:22;;;;;;;7.43;5.45;;;;;;;28.67;31.76;98766.09;5031941;28;20119;-63
2021/06/16 10:53:04;;;;;;;10.10;4.70;;;;;;;28.50;30.69;98762.34;5022730;28;20118;-63
2021/06/16 10:55:51;;;;;;;12.57;5.53;;;;;;;28.45;31.00;98755.81;5022054;28;20034;-62
2021/06/16 10:58:17;;;;;;;6.50;4.57;;;;;;;28.43;31.03;98758.56;5024562;28;20032;-63
2021/06/16 11:00:42;;;;;;;5.00;4.50;;;;;;;28.68;30.75;98745.81;5024265;28;20041;-63
2021/06/16 11:03:08;;;;;;;4.85;4.45;;;;;;;28.61;30.56;98748.16;5023384;28;20022;-64
2021/06/16 11:05:36;;;;;;;7.63;4.80;;;;;;;28.30;30.42;98752.75;5025461;28;20025;-65
2021/06/16 11:08:03;;;;;;;5.82;4.35;;;;;;;28.32;30.59;98756.06;5021485;28;20455;-64
2021/06/16 11:11:02;;;;;;;13.95;4.35;;;;;;;28.46;30.33;98749.56;5013211;28;20241;-64
2021/06/16 11:13:39;;;;;;;9.73;4.28;;;;;;;28.47;30.32;98748.59;4992672;28;20029;-64
2021/06/16 11:16:40;;;;;;;6.82;6.10;;;;;;;28.85;30.69;98753.06;5019924;28;20025;-63
2021/06/16 11:19:17;;;;;;;4.00;3.70;;;;;;;29.16;31.14;98748.38;5017151;28;20030;-63
2021/06/16 11:21:43;;;;;;;4.75;4.30;;;;;;;29.47;30.97;98761.25;5011717;28;20044;-63
2021/06/16 11:24:08;;;;;;;5.10;4.70;;;;;;;29.69;29.89;98751.28;5021378;28;20038;-62
2021/06/16 11:26:44;;;;;;;5.88;4.82;;;;;;;29.66;30.82;98749.78;5012821;28;20033;-64
2021/06/16 11:29:10;;;;;;;5.60;3.85;;;;;;;29.66;30.17;98741.03;5018580;28;20048;-64
2021/06/16 11:32:11;;;;;;;5.32;4.22;;;;;;;29.69;29.96;98738.91;5020079;28;20087;-64
2021/06/16 11:34:54;;;;;;;4.85;4.07;;;;;;;29.77;29.50;98738.16;4990115;28;20030;-64
2021/06/16 11:38:07;;;;;;;8.60;4.45;;;;;;;29.85;29.52;98740.91;4991610;28;20049;-64
2021/06/16 11:40:33;;;;;;;5.90;4.50;;;;;;;29.40;28.96;98740.84;4991483;28;20038;-64
2021/06/16 11:42:59;;;;;;;5.15;4.63;;;;;;;29.37;28.65;98743.75;4991897;28;20082;-64
2021/06/16 11:45:29;;;;;;;6.68;4.82;;;;;;;29.50;28.66;98742.47;4993083;28;20042;-64